createdAt,value
2019-03-27T00:01:18.525Z,2.83
2019-03-27T00:03:47.150Z,2.47
2019-03-27T00:06:15.785Z,3.00
2019-03-27T00:08:44.316Z,2.80
2019-03-27T00:11:16.054Z,2.70
2019-03-27T00:13:43.184Z,2.47
2019-03-27T00:16:11.852Z,2.77
2019-03-27T00:18:40.417Z,2.33
2019-03-27T00:21:08.906Z,2.87
2019-03-27T00:23:37.577Z,3.20
2019-03-27T00:26:06.209Z,3.40
2019-03-27T00:28:34.705Z,3.17
2019-03-27T00:31:03.458Z,3.55
2019-03-27T00:33:32.087Z,3.10
2019-03-27T00:36:00.711Z,3.27
2019-03-27T00:38:29.316Z,3.72
2019-03-27T00:40:57.872Z,3.12
2019-03-27T00:43:26.496Z,3.60
2019-03-27T00:45:55.162Z,3.47
2019-03-27T00:48:23.714Z,3.30
2019-03-27T00:50:52.376Z,2.90
2019-03-27T00:53:20.984Z,3.12
2019-03-27T00:55:49.611Z,3.22
2019-03-27T00:58:18.209Z,2.85
2019-03-27T01:00:49.743Z,3.57
2019-03-27T01:03:18.227Z,3.07
2019-03-27T01:05:46.756Z,2.75
2019-03-27T01:08:15.385Z,4.10
2019-03-27T01:10:44.022Z,2.80
2019-03-27T01:13:12.666Z,2.72
2019-03-27T01:15:41.153Z,2.58
2019-03-27T01:18:09.782Z,2.85
2019-03-27T01:20:38.446Z,2.83
2019-03-27T01:23:06.936Z,3.15
2019-03-27T01:25:35.431Z,2.85
2019-03-27T01:28:04.093Z,2.80
2019-03-27T01:30:32.720Z,2.90
2019-03-27T01:33:01.211Z,2.22
2019-03-27T01:35:29.739Z,2.58
2019-03-27T01:37:58.368Z,3.22
2019-03-27T01:40:26.921Z,2.45
2019-03-27T01:42:56.592Z,2.90
2019-03-27T01:45:25.215Z,2.30
2019-03-27T01:47:53.705Z,2.85
2019-03-27T01:50:22.234Z,2.47
2019-03-27T01:52:50.865Z,2.67
2019-03-27T01:55:19.487Z,3.15
2019-03-27T01:57:48.286Z,3.60
2019-03-27T02:00:17.135Z,3.33
2019-03-27T02:02:45.731Z,3.33
2019-03-27T02:05:14.407Z,3.52
2019-03-27T02:07:42.898Z,3.27
2019-03-27T02:10:12.021Z,2.85
2019-03-27T02:12:40.684Z,3.15
2019-03-27T02:15:09.739Z,3.30
2019-03-27T02:17:38.295Z,3.40
2019-03-27T02:20:08.451Z,3.92
2019-03-27T02:22:36.954Z,3.95
2019-03-27T02:25:06.683Z,3.80
2019-03-27T02:27:35.350Z,3.58
2019-03-27T02:30:04.877Z,3.20
2019-03-27T02:32:33.358Z,3.75
2019-03-27T02:35:01.938Z,3.75
2019-03-27T02:37:30.583Z,3.50
2019-03-27T02:39:59.210Z,3.87
2019-03-27T02:42:27.996Z,3.87
2019-03-27T02:44:56.664Z,3.83
2019-03-27T02:47:25.288Z,4.37
2019-03-27T02:49:53.955Z,3.72
2019-03-27T02:52:22.449Z,3.45
2019-03-27T02:54:50.956Z,4.00
2019-03-27T02:57:19.623Z,4.72
2019-03-27T02:59:48.194Z,3.70
2019-03-27T03:02:16.807Z,4.00
2019-03-27T03:04:45.670Z,3.87
2019-03-27T03:07:14.233Z,4.25
2019-03-27T03:09:42.718Z,4.22
2019-03-27T03:12:11.614Z,4.05
2019-03-27T03:14:40.246Z,4.00
2019-03-27T03:17:08.748Z,4.28
2019-03-27T03:19:37.458Z,3.92
2019-03-27T03:22:06.088Z,4.50
2019-03-27T03:24:34.713Z,3.60
2019-03-27T03:27:03.392Z,4.42
2019-03-27T03:29:31.883Z,3.67
2019-03-27T03:32:00.596Z,4.33
2019-03-27T03:34:29.256Z,4.20
2019-03-27T03:36:57.885Z,4.72
2019-03-27T03:39:26.530Z,4.65
2019-03-27T03:41:55.132Z,4.67
2019-03-27T03:44:23.697Z,5.57
2019-03-27T03:46:59.654Z,5.03
2019-03-27T03:49:22.708Z,5.17
2019-03-27T03:51:51.332Z,5.03
2019-03-27T03:54:20.171Z,5.87
2019-03-27T03:56:51.335Z,5.75
2019-03-27T03:59:22.345Z,5.80
2019-03-27T04:01:54.149Z,5.37
2019-03-27T04:04:23.021Z,5.97
2019-03-27T04:06:51.748Z,5.80
2019-03-27T04:09:20.379Z,5.27
2019-03-27T04:11:48.914Z,6.53
2019-03-27T04:14:17.422Z,6.22
2019-03-27T04:16:46.034Z,6.17
2019-03-27T04:19:14.625Z,7.23
2019-03-27T04:21:43.250Z,6.20
2019-03-27T04:24:11.965Z,6.03
2019-03-27T04:26:40.563Z,5.90
2019-03-27T04:29:09.192Z,6.25
2019-03-27T04:31:37.819Z,6.25
2019-03-27T04:34:06.497Z,6.37
2019-03-27T04:36:34.989Z,5.83
2019-03-27T04:39:04.863Z,5.67
2019-03-27T04:41:33.520Z,6.53
2019-03-27T04:44:02.147Z,6.20
2019-03-27T04:46:30.684Z,6.78
2019-03-27T04:48:59.179Z,6.28
2019-03-27T04:51:27.806Z,6.25
2019-03-27T04:53:56.746Z,7.17
2019-03-27T04:56:25.242Z,6.37
2019-03-27T04:58:53.870Z,6.42
2019-03-27T05:01:22.394Z,6.72
2019-03-27T05:03:53.542Z,6.62
2019-03-27T05:06:22.184Z,7.70
2019-03-27T05:08:50.836Z,7.50
2019-03-27T05:11:19.403Z,7.05
2019-03-27T05:13:47.923Z,7.20
2019-03-27T05:16:16.858Z,7.47
2019-03-27T05:18:45.613Z,8.28
2019-03-27T05:21:14.184Z,7.92
2019-03-27T05:23:42.908Z,7.15
2019-03-27T05:26:11.577Z,7.60
2019-03-27T05:28:40.219Z,7.50
2019-03-27T05:31:08.832Z,7.65
2019-03-27T05:33:37.350Z,7.65
2019-03-27T05:36:05.976Z,7.05
2019-03-27T05:38:34.647Z,7.10
2019-03-27T05:41:03.208Z,7.47
2019-03-27T05:43:31.764Z,8.33
2019-03-27T05:46:00.444Z,8.53
2019-03-27T05:48:29.154Z,6.60
2019-03-27T05:50:58.015Z,8.68
2019-03-27T05:53:26.727Z,7.12
2019-03-27T05:55:55.378Z,7.65
2019-03-27T05:58:24.047Z,6.83
2019-03-27T06:00:52.633Z,6.42
2019-03-27T06:03:21.140Z,7.70
2019-03-27T06:05:49.771Z,6.72
2019-03-27T06:08:18.448Z,8.05
2019-03-27T06:10:46.949Z,6.90
2019-03-27T06:13:15.446Z,7.33
2019-03-27T06:15:45.242Z,7.00
2019-03-27T06:18:14.291Z,7.37
2019-03-27T06:20:42.916Z,7.75
2019-03-27T06:23:11.727Z,8.00
2019-03-27T06:25:40.329Z,6.42
2019-03-27T06:28:08.836Z,6.45
2019-03-27T06:30:37.882Z,6.65
2019-03-27T06:33:06.514Z,6.15
2019-03-27T06:35:35.087Z,6.75
2019-03-27T06:38:03.627Z,5.55
2019-03-27T06:40:32.279Z,5.47
2019-03-27T06:43:00.911Z,5.08
2019-03-27T06:45:29.739Z,6.05
2019-03-27T06:47:58.312Z,5.70
2019-03-27T06:50:26.952Z,5.45
2019-03-27T06:52:55.621Z,6.45
2019-03-27T06:55:24.138Z,4.95
2019-03-27T06:57:52.831Z,5.33
2019-03-27T07:00:24.416Z,5.20
2019-03-27T07:02:52.978Z,5.17
2019-03-27T07:05:21.653Z,4.47
2019-03-27T07:07:50.323Z,4.28
2019-03-27T07:10:18.904Z,4.00
2019-03-27T07:12:47.490Z,4.20
2019-03-27T07:15:16.121Z,4.60
2019-03-27T07:17:44.841Z,1.60
2019-03-27T07:20:13.911Z,1.50
2019-03-27T07:22:42.406Z,1.30
2019-03-27T07:25:11.345Z,1.05
2019-03-27T07:27:39.995Z,1.05
2019-03-27T07:30:09.122Z,1.15
2019-03-27T07:32:37.686Z,1.40
2019-03-27T07:35:06.720Z,1.37
2019-03-27T07:37:35.293Z,1.87
2019-03-27T07:40:05.129Z,2.33
2019-03-27T07:42:33.916Z,1.72
2019-03-27T07:45:02.481Z,1.37
2019-03-27T07:47:31.045Z,1.32
2019-03-27T07:49:59.729Z,0.98
2019-03-27T07:52:28.357Z,1.00
2019-03-27T07:54:56.849Z,1.30
2019-03-27T07:57:25.735Z,1.27
2019-03-27T07:59:54.370Z,2.33
2019-03-27T08:02:23.008Z,1.65
2019-03-27T08:04:51.615Z,1.40
2019-03-27T08:07:26.665Z,1.90
2019-03-27T08:09:50.496Z,2.05
2019-03-27T08:12:19.164Z,2.15
2019-03-27T08:14:47.663Z,3.62
2019-03-27T08:17:16.379Z,1.57
2019-03-27T08:19:45.077Z,1.22
2019-03-27T08:22:13.574Z,2.25
2019-03-27T08:24:42.208Z,1.30
2019-03-27T08:27:10.882Z,1.05
2019-03-27T08:29:39.408Z,1.10
2019-03-27T08:32:07.915Z,1.10
2019-03-27T08:34:36.586Z,1.47
2019-03-27T08:37:05.498Z,1.45
2019-03-27T08:39:33.992Z,1.40
2019-03-27T08:42:02.594Z,2.17
2019-03-27T08:44:31.340Z,1.90
2019-03-27T08:46:59.970Z,2.77
2019-03-27T08:49:28.517Z,2.35
2019-03-27T08:51:57.011Z,1.90
2019-03-27T08:54:25.642Z,2.08
2019-03-27T08:56:54.332Z,2.85
2019-03-27T08:59:22.963Z,2.02
2019-03-27T09:01:51.721Z,2.00
2019-03-27T09:04:20.638Z,2.25
2019-03-27T09:06:49.209Z,1.80
2019-03-27T09:09:17.840Z,2.25
2019-03-27T09:11:46.516Z,1.95
2019-03-27T09:14:15.165Z,2.60
2019-03-27T09:16:43.694Z,1.85
2019-03-27T09:19:12.362Z,2.52
2019-03-27T09:21:41.014Z,1.60
2019-03-27T09:24:09.763Z,1.92
2019-03-27T09:26:38.314Z,2.15
2019-03-27T09:29:08.482Z,2.20
2019-03-27T09:31:44.822Z,1.30
2019-03-27T09:34:07.736Z,2.55
2019-03-27T09:36:36.396Z,1.27
2019-03-27T09:39:07.920Z,2.17
2019-03-27T09:41:36.616Z,1.47
2019-03-27T09:44:05.268Z,1.45
2019-03-27T09:46:33.898Z,1.55
2019-03-27T09:49:02.434Z,1.42
2019-03-27T09:51:30.926Z,1.20
2019-03-27T09:53:59.564Z,1.77
2019-03-27T09:56:28.249Z,1.47
2019-03-27T09:58:56.743Z,1.75
2019-03-27T10:01:25.314Z,0.90
2019-03-27T10:03:54.218Z,1.00
2019-03-27T10:06:22.845Z,1.02
2019-03-27T10:08:51.340Z,0.90
2019-03-27T10:11:20.018Z,0.78
2019-03-27T10:13:48.655Z,0.90
2019-03-27T10:16:17.217Z,0.95
2019-03-27T10:18:47.487Z,1.55
2019-03-27T10:21:16.403Z,1.75
2019-03-27T10:23:44.902Z,1.40
2019-03-27T10:26:13.608Z,1.35
2019-03-27T10:28:42.234Z,1.07
2019-03-27T10:31:10.934Z,0.98
2019-03-27T10:33:39.495Z,1.42
2019-03-27T10:36:08.060Z,1.52
2019-03-27T10:38:36.775Z,0.98
2019-03-27T10:41:05.453Z,1.32
2019-03-27T10:43:34.022Z,1.55
2019-03-27T10:46:02.574Z,1.47
2019-03-27T10:48:31.247Z,1.50
2019-03-27T10:50:59.879Z,1.85
2019-03-27T10:53:28.517Z,1.32
2019-03-27T10:55:57.221Z,1.10
2019-03-27T10:58:26.500Z,1.90
2019-03-27T11:00:55.099Z,1.67
2019-03-27T11:03:23.708Z,1.47
2019-03-27T11:05:52.340Z,1.55
2019-03-27T11:08:20.980Z,1.35
2019-03-27T11:10:49.654Z,2.02
2019-03-27T11:13:18.151Z,1.50
2019-03-27T11:15:46.805Z,1.55
2019-03-27T11:18:15.400Z,1.57
2019-03-27T11:20:44.037Z,1.40
2019-03-27T11:23:12.528Z,1.95
2019-03-27T11:25:41.128Z,1.60
2019-03-27T11:28:09.786Z,1.82
2019-03-27T11:30:39.214Z,1.98
2019-03-27T11:33:08.153Z,2.50
2019-03-27T11:35:36.789Z,2.10
2019-03-27T11:38:05.629Z,2.00
2019-03-27T11:40:34.170Z,1.90
2019-03-27T11:43:02.803Z,1.92
2019-03-27T11:45:31.438Z,2.20
2019-03-27T11:48:00.006Z,2.30
2019-03-27T11:50:28.570Z,2.20
2019-03-27T11:52:57.202Z,1.30
2019-03-27T11:55:25.879Z,2.27
2019-03-27T11:57:54.437Z,1.92
2019-03-27T12:00:23.261Z,2.52
2019-03-27T12:02:51.935Z,1.62
2019-03-27T12:05:20.596Z,1.92
2019-03-27T12:07:49.090Z,2.12
2019-03-27T12:10:17.748Z,2.47
2019-03-27T12:12:48.264Z,1.52
2019-03-27T12:15:19.722Z,2.30
2019-03-27T12:17:48.393Z,2.02
2019-03-27T12:20:17.027Z,1.75
2019-03-27T12:22:57.148Z,1.82
2019-03-27T12:25:15.949Z,1.60
2019-03-27T12:27:44.658Z,1.47
2019-03-27T12:30:13.521Z,2.22
2019-03-27T12:32:42.176Z,2.02
2019-03-27T12:35:10.819Z,3.47
2019-03-27T12:37:39.457Z,2.80
2019-03-27T12:40:11.853Z,2.52
2019-03-27T12:42:38.531Z,2.80
2019-03-27T12:45:07.574Z,3.25
2019-03-27T12:47:36.255Z,2.85
2019-03-27T12:50:07.692Z,3.40
2019-03-27T12:52:36.337Z,2.35
2019-03-27T12:55:06.323Z,2.77
2019-03-27T12:57:34.884Z,1.67
2019-03-27T13:00:04.110Z,1.87
2019-03-27T13:02:32.797Z,1.92
2019-03-27T13:05:01.436Z,2.77
2019-03-27T13:07:29.990Z,2.35
2019-03-27T13:09:58.522Z,3.00
2019-03-27T13:12:27.233Z,2.45
2019-03-27T13:14:55.874Z,1.72
2019-03-27T13:17:24.400Z,1.98
2019-03-27T13:19:52.944Z,2.70
2019-03-27T13:22:21.721Z,2.45
2019-03-27T13:24:50.646Z,2.65
2019-03-27T13:27:19.222Z,2.00
2019-03-27T13:29:47.711Z,1.87
2019-03-27T13:32:16.398Z,2.47
2019-03-27T13:34:45.038Z,3.25
2019-03-27T13:37:13.528Z,2.75
2019-03-27T13:39:42.129Z,2.15
2019-03-27T13:42:10.820Z,2.55
2019-03-27T13:44:39.442Z,3.00
2019-03-27T13:47:08.168Z,2.30
2019-03-27T13:49:36.824Z,2.95
2019-03-27T13:52:05.458Z,2.85
2019-03-27T13:54:34.159Z,1.80
2019-03-27T13:57:02.652Z,2.20
2019-03-27T13:59:31.285Z,3.17
2019-03-27T14:02:00.107Z,1.95
2019-03-27T14:04:28.744Z,2.25
2019-03-27T14:06:57.242Z,2.80
2019-03-27T14:09:25.743Z,2.17
2019-03-27T14:11:54.377Z,2.35
2019-03-27T14:14:23.024Z,2.02
2019-03-27T14:16:51.741Z,2.05
2019-03-27T14:19:20.569Z,2.47
2019-03-27T14:21:54.853Z,2.50
2019-03-27T14:24:19.416Z,1.80
2019-03-27T14:26:48.045Z,2.37
2019-03-27T14:29:16.798Z,2.62
2019-03-27T14:31:45.378Z,2.22
2019-03-27T14:34:13.861Z,1.80
2019-03-27T14:36:42.536Z,2.08
2019-03-27T14:39:11.159Z,2.27
2019-03-27T14:41:39.804Z,1.92
2019-03-27T14:44:08.686Z,2.00
2019-03-27T14:46:37.317Z,2.30
2019-03-27T14:49:06.254Z,3.08
2019-03-27T14:51:34.784Z,1.55
2019-03-27T14:54:03.511Z,2.00
2019-03-27T14:56:31.981Z,2.70
2019-03-27T14:59:00.511Z,2.20
2019-03-27T15:01:29.249Z,1.70
2019-03-27T15:03:57.871Z,1.80
2019-03-27T15:06:26.444Z,2.10
2019-03-27T15:08:54.945Z,2.02
2019-03-27T15:11:23.577Z,1.42
2019-03-27T15:13:52.257Z,1.98
2019-03-27T15:16:20.761Z,1.90
2019-03-27T15:18:52.378Z,1.87
2019-03-27T15:21:19.989Z,1.87
2019-03-27T15:23:48.622Z,2.58
2019-03-27T15:26:17.116Z,1.95
2019-03-27T15:28:45.711Z,2.22
2019-03-27T15:31:20.417Z,2.27
2019-03-27T15:33:44.646Z,2.58
2019-03-27T15:36:13.467Z,2.52
2019-03-27T15:38:42.102Z,2.15
2019-03-27T15:41:10.604Z,2.12
2019-03-27T15:43:39.128Z,2.02
2019-03-27T15:46:07.772Z,2.42
2019-03-27T15:48:36.411Z,1.87
2019-03-27T15:51:05.037Z,2.22
2019-03-27T15:53:33.539Z,1.90
2019-03-27T15:56:02.275Z,1.90
2019-03-27T15:58:31.027Z,2.33
2019-03-27T16:00:59.643Z,2.20
2019-03-27T16:03:28.138Z,2.27
2019-03-27T16:05:56.821Z,2.10
2019-03-27T16:08:25.495Z,2.10
2019-03-27T16:10:54.126Z,2.80
2019-03-27T16:13:22.698Z,3.27
2019-03-27T16:15:51.331Z,2.52
2019-03-27T16:18:19.978Z,2.40
2019-03-27T16:20:48.506Z,1.87
2019-03-27T16:23:16.998Z,2.40
2019-03-27T16:25:45.563Z,1.60
2019-03-27T16:28:14.499Z,1.65
2019-03-27T16:30:42.991Z,2.08
2019-03-27T16:33:11.482Z,2.70
2019-03-27T16:35:40.349Z,2.60
2019-03-27T16:38:08.988Z,2.50
2019-03-27T16:40:45.450Z,2.33
2019-03-27T16:43:13.121Z,2.45
2019-03-27T16:45:41.751Z,1.60
2019-03-27T16:48:10.845Z,2.95
2019-03-27T16:50:39.606Z,2.05
2019-03-27T16:53:08.247Z,2.37
2019-03-27T16:55:37.108Z,3.47
2019-03-27T16:58:05.604Z,3.37
2019-03-27T17:00:34.246Z,2.92
2019-03-27T17:03:02.915Z,2.83
2019-03-27T17:05:31.403Z,3.35
2019-03-27T17:07:59.915Z,3.52
2019-03-27T17:10:28.582Z,3.37
2019-03-27T17:12:57.214Z,3.80
2019-03-27T17:15:25.832Z,3.05
2019-03-27T17:17:54.466Z,3.95
2019-03-27T17:20:23.098Z,3.22
2019-03-27T17:22:51.714Z,3.30
2019-03-27T17:25:20.311Z,3.22
2019-03-27T17:27:48.861Z,3.55
2019-03-27T17:30:18.750Z,3.83
2019-03-27T17:32:47.388Z,3.42
2019-03-27T17:35:16.021Z,4.70
2019-03-27T17:37:44.648Z,3.80
2019-03-27T17:40:14.512Z,3.55
2019-03-27T17:42:43.080Z,4.08
2019-03-27T17:45:11.815Z,4.10
2019-03-27T17:47:40.538Z,4.37
2019-03-27T17:50:09.461Z,4.17
2019-03-27T17:52:38.516Z,5.28
2019-03-27T17:55:08.473Z,5.37
2019-03-27T17:57:37.108Z,8.05
2019-03-27T18:00:15.383Z,8.70
2019-03-27T18:02:43.936Z,12.20
2019-03-27T18:05:12.769Z,13.58
2019-03-27T18:07:41.448Z,14.10
2019-03-27T18:10:10.483Z,14.93
2019-03-27T18:12:39.109Z,13.50
2019-03-27T18:15:09.081Z,12.68
2019-03-27T18:17:37.653Z,10.03
2019-03-27T18:20:06.602Z,9.38
2019-03-27T18:22:35.287Z,9.00
2019-03-27T18:25:04.860Z,8.98
2019-03-27T18:27:33.436Z,9.90
2019-03-27T18:30:02.334Z,12.40
2019-03-27T18:32:30.960Z,13.98
2019-03-27T18:34:59.538Z,13.68
2019-03-27T18:37:28.199Z,14.95
2019-03-27T18:39:56.837Z,14.58
2019-03-27T18:42:25.470Z,13.68
2019-03-27T18:44:54.312Z,14.68
2019-03-27T18:47:22.874Z,19.32
2019-03-27T18:49:51.514Z,20.27
2019-03-27T18:52:20.284Z,22.10
2019-03-27T18:54:48.924Z,22.42
2019-03-27T18:57:17.560Z,26.62
2019-03-27T18:59:46.176Z,27.45
2019-03-27T19:02:14.783Z,24.47
2019-03-27T19:04:43.418Z,17.42
2019-03-27T19:07:12.085Z,18.40
2019-03-27T19:09:40.586Z,21.30
2019-03-27T19:12:09.245Z,24.15
2019-03-27T19:14:38.152Z,23.15
2019-03-27T19:17:06.787Z,21.52
2019-03-27T19:19:35.423Z,20.77
2019-03-27T19:22:04.202Z,18.90
2019-03-27T19:24:32.839Z,17.35
2019-03-27T19:27:01.479Z,17.65
2019-03-27T19:29:30.260Z,17.00
2019-03-27T19:31:58.898Z,16.73
2019-03-27T19:34:27.395Z,17.23
2019-03-27T19:36:56.112Z,15.75
2019-03-27T19:39:24.751Z,13.00
2019-03-27T19:41:53.389Z,11.30
2019-03-27T19:44:21.933Z,11.48
2019-03-27T19:46:50.506Z,11.10
2019-03-27T19:49:19.140Z,10.40
2019-03-27T19:51:47.809Z,10.15
2019-03-27T19:54:26.584Z,9.43
2019-03-27T19:56:46.616Z,10.03
2019-03-27T19:59:15.280Z,8.97
2019-03-27T20:01:43.923Z,8.55
2019-03-27T20:04:12.480Z,7.85
2019-03-27T20:06:41.081Z,8.45
2019-03-27T20:09:09.711Z,8.43
2019-03-27T20:11:38.420Z,8.23
2019-03-27T20:14:07.256Z,8.65
2019-03-27T20:16:35.882Z,8.53
2019-03-27T20:19:04.552Z,8.28
2019-03-27T20:21:33.230Z,7.50
2019-03-27T20:24:01.880Z,7.45
2019-03-27T20:26:30.488Z,8.38
2019-03-27T20:28:59.256Z,7.92
2019-03-27T20:31:27.746Z,9.08
2019-03-27T20:33:56.375Z,9.68
2019-03-27T20:36:25.056Z,10.40
2019-03-27T20:38:53.696Z,10.45
2019-03-27T20:41:22.200Z,9.75
2019-03-27T20:43:50.883Z,9.03
2019-03-27T20:46:24.923Z,8.68
2019-03-27T20:48:49.719Z,8.75
2019-03-27T20:51:18.387Z,8.78
2019-03-27T20:53:46.886Z,9.60
2019-03-27T20:56:15.388Z,9.60
2019-03-27T20:58:44.081Z,9.10
2019-03-27T21:01:13.000Z,8.85
2019-03-27T21:03:41.485Z,8.93
2019-03-27T21:06:10.244Z,8.63
2019-03-27T21:08:38.727Z,9.80
2019-03-27T21:11:07.294Z,8.50
2019-03-27T21:13:35.924Z,9.50
2019-03-27T21:16:04.547Z,9.50
2019-03-27T21:18:33.047Z,9.50
2019-03-27T21:21:01.667Z,9.63
2019-03-27T21:23:30.147Z,9.50
2019-03-27T21:25:58.673Z,8.63
2019-03-27T21:28:27.200Z,9.43
2019-03-27T21:30:55.690Z,10.72
2019-03-27T21:33:24.197Z,12.37
2019-03-27T21:35:52.729Z,14.90
2019-03-27T21:38:21.237Z,24.37
2019-03-27T21:40:49.730Z,20.35
2019-03-27T21:43:18.415Z,20.17
2019-03-27T21:45:46.917Z,20.00
2019-03-27T21:48:15.485Z,18.50
2019-03-27T21:50:43.986Z,18.65
2019-03-27T21:53:12.485Z,19.42
2019-03-27T21:55:43.094Z,19.43
2019-03-27T21:58:11.304Z,14.57
2019-03-27T22:00:40.854Z,16.55
2019-03-27T22:03:09.928Z,14.60
2019-03-27T22:05:38.561Z,13.05
2019-03-27T22:08:07.238Z,12.70
2019-03-27T22:10:36.056Z,10.48
2019-03-27T22:13:04.690Z,9.53
2019-03-27T22:15:33.205Z,9.80
2019-03-27T22:18:01.744Z,8.05
2019-03-27T22:20:30.227Z,7.90
2019-03-27T22:22:58.793Z,7.97
2019-03-27T22:25:35.885Z,8.28
2019-03-27T22:27:57.623Z,8.55
2019-03-27T22:30:26.260Z,7.78
2019-03-27T22:32:54.791Z,7.87
2019-03-27T22:35:23.425Z,7.30
2019-03-27T22:37:51.918Z,7.00
2019-03-27T22:40:20.448Z,8.30
2019-03-27T22:42:48.934Z,6.42
2019-03-27T22:45:17.492Z,7.80
2019-03-27T22:47:46.246Z,7.10
2019-03-27T22:50:14.802Z,7.92
2019-03-27T22:52:43.359Z,7.47
2019-03-27T22:55:12.021Z,7.57
2019-03-27T22:57:40.517Z,7.60
2019-03-27T23:00:13.080Z,6.40
2019-03-27T23:02:41.749Z,6.20
2019-03-27T23:05:10.787Z,6.05
2019-03-27T23:07:39.265Z,5.28
2019-03-27T23:10:08.127Z,5.27
2019-03-27T23:12:36.617Z,6.00
2019-03-27T23:15:09.802Z,5.80
2019-03-27T23:17:38.402Z,6.87
2019-03-27T23:20:10.380Z,6.23
2019-03-27T23:22:38.946Z,5.70
2019-03-27T23:25:07.985Z,5.70
2019-03-27T23:27:36.629Z,5.23
2019-03-27T23:30:08.165Z,5.50
2019-03-27T23:32:37.224Z,5.00
2019-03-27T23:35:08.414Z,4.37
2019-03-27T23:37:37.040Z,3.80
2019-03-27T23:40:06.519Z,3.30
2019-03-27T23:42:35.136Z,3.93
2019-03-27T23:45:04.972Z,3.63
2019-03-27T23:47:33.580Z,3.60
2019-03-27T23:50:02.185Z,3.50
2019-03-27T23:52:30.846Z,3.77
2019-03-27T23:54:59.517Z,3.73
2019-03-27T23:57:28.008Z,3.23
2019-03-27T23:59:56.577Z,3.30
